Time;durP1;ratioP1;P1;durP2;ratioP2;P2;SDS_P1;SDS_P2;PMS_P1;PMS_P2;Temp;Humidity;BMP_temperature;BMP_pressure;BME280_temperature;BME280_humidity;BME280_pressure;Samples;Min_cycle;Max_cycle;Signal;HPM_P1;HPM_P2
2021/06/23 00:01:52;;;;;;;13.53;10.93;;;;;;;18.53;78.53;100157.62;2115877;82;21153;-78
2021/06/23 00:04:53;;;;;;;14.65;10.93;;;;;;;18.50;78.51;100155.34;2122620;82;21103;-78
2021/06/23 00:07:54;;;;;;;14.43;10.85;;;;;;;18.49;78.48;100159.90;2116058;82;21017;-77
2021/06/23 00:10:56;;;;;;;14.23;11.05;;;;;;;18.51;78.49;100158.36;2124416;82;21016;-77
2021/06/23 00:13:58;;;;;;;11.48;10.38;;;;;;;18.49;78.48;100157.73;2125664;82;20984;-79
2021/06/23 00:16:59;;;;;;;16.10;10.30;;;;;;;18.45;78.70;100159.23;2121017;83;20963;-77
2021/06/23 00:20:01;;;;;;;14.98;11.78;;;;;;;18.45;78.63;100167.29;2120997;82;21032;-78
2021/06/23 00:23:03;;;;;;;14.18;10.93;;;;;;;18.41;78.58;100170.09;2123598;82;21082;-78
2021/06/23 00:26:04;;;;;;;13.13;10.90;;;;;;;18.38;78.62;100166.78;2109814;82;21562;-79
2021/06/23 00:29:06;;;;;;;14.83;10.60;;;;;;;18.31;78.75;100160.66;2076119;83;21029;-76
2021/06/23 00:32:20;;;;;;;12.33;10.00;;;;;;;18.26;78.85;100149.73;2087428;83;21043;-77
2021/06/23 00:35:21;;;;;;;15.08;10.28;;;;;;;18.21;78.93;100150.08;2084883;83;21160;-78
2021/06/23 00:38:23;;;;;;;11.83;10.38;;;;;;;18.16;79.12;100142.69;2077335;83;21049;-78
2021/06/23 00:41:24;;;;;;;12.93;10.32;;;;;;;18.12;79.21;100139.58;2082311;83;21050;-77
2021/06/23 00:44:29;;;;;;;13.72;10.03;;;;;;;18.14;79.19;100146.09;2088094;83;21591;-78
2021/06/23 00:47:32;;;;;;;12.15;10.45;;;;;;;18.15;79.53;100153.10;2084339;83;21088;-77
2021/06/23 00:50:35;;;;;;;11.48;9.60;;;;;;;18.11;79.18;100154.06;2081327;83;21059;-77
2021/06/23 00:53:41;;;;;;;12.28;9.93;;;;;;;18.09;79.29;100149.41;2078941;83;21543;-77
2021/06/23 00:56:43;;;;;;;13.95;9.98;;;;;;;18.07;79.49;100139.92;2082398;83;20955;-77
2021/06/23 00:59:49;;;;;;;16.30;10.00;;;;;;;18.03;79.33;100138.72;2086703;83;21517;-77
2021/06/23 01:02:52;;;;;;;15.00;10.48;;;;;;;18.06;79.72;100146.34;2081915;83;21005;-78
2021/06/23 01:05:55;;;;;;;13.40;10.13;;;;;;;18.04;79.46;100149.23;2081425;83;21007;-77
2021/06/23 01:08:58;;;;;;;13.38;10.35;;;;;;;18.03;79.52;100152.14;2089180;83;21049;-78
2021/06/23 01:12:29;;;;;;;13.93;10.08;;;;;;;17.99;79.57;100152.25;2079824;83;21498;-76
2021/06/23 01:15:34;;;;;;;12.73;11.43;;;;;;;17.99;79.73;100145.55;2087317;83;21086;-77
2021/06/23 01:18:39;;;;;;;12.82;11.57;;;;;;;17.97;79.72;100156.52;2085962;83;21109;-78
2021/06/23 01:21:43;;;;;;;14.40;11.05;;;;;;;17.95;79.72;100163.13;2084305;83;21018;-77
2021/06/23 01:24:45;;;;;;;15.85;11.68;;;;;;;17.95;79.76;100157.77;2087605;83;20981;-78
2021/06/23 01:27:47;;;;;;;14.53;12.18;;;;;;;17.92;79.67;100145.06;2113098;83;21081;-77
2021/06/23 01:30:50;;;;;;;16.57;12.13;;;;;;;17.94;79.91;100142.70;2112785;82;20987;-78
2021/06/23 01:34:07;;;;;;;18.75;12.88;;;;;;;17.95;79.78;100155.08;2122100;82;21495;-79
2021/06/23 01:37:10;;;;;;;15.83;11.60;;;;;;;17.96;79.84;100164.77;2120520;82;21070;-77
2021/06/23 01:40:13;;;;;;;16.40;13.22;;;;;;;17.97;79.81;100159.72;2098843;83;21581;-77
2021/06/23 01:43:16;;;;;;;19.82;12.75;;;;;;;17.96;79.81;100174.16;2123517;82;20983;-78
2021/06/23 01:46:20;;;;;;;16.17;11.78;;;;;;;17.98;79.76;100180.15;2121274;82;21005;-77
2021/06/23 01:49:25;;;;;;;17.42;12.15;;;;;;;17.99;79.68;100182.63;2123986;82;21037;-78
2021/06/23 01:52:27;;;;;;;16.00;11.63;;;;;;;18.00;79.67;100196.34;2113068;82;21016;-78
2021/06/23 01:55:31;;;;;;;16.93;10.90;;;;;;;18.01;79.65;100201.20;2118789;82;21094;-77
2021/06/23 01:58:43;;;;;;;16.30;12.05;;;;;;;18.02;79.55;100202.83;2118258;82;21023;-77
2021/06/23 02:01:58;;;;;;;19.27;13.58;;;;;;;18.04;79.57;100198.90;2119627;82;21491;-76
2021/06/23 02:05:17;;;;;;;19.70;13.45;;;;;;;18.00;79.57;100210.30;2121896;82;21535;-78
2021/06/23 02:08:53;;;;;;;22.37;14.05;;;;;;;18.01;79.64;100207.38;2058454;84;21031;-79
2021/06/23 02:12:21;;;;;;;19.75;13.75;;;;;;;18.02;79.58;100214.42;2093888;82;21577;-78
2021/06/23 02:15:25;;;;;;;25.52;13.72;;;;;;;17.99;79.44;100216.69;2096582;83;21020;-78
2021/06/23 02:18:28;;;;;;;21.15;13.00;;;;;;;17.97;79.56;100216.09;2086829;83;21027;-79
2021/06/23 02:21:47;;;;;;;15.45;12.07;;;;;;;17.96;79.46;100217.11;2097394;84;21040;-77
2021/06/23 02:24:52;;;;;;;21.75;12.37;;;;;;;17.95;79.41;100210.10;2101007;83;21012;-77
2021/06/23 02:27:55;;;;;;;18.55;12.15;;;;;;;17.90;79.39;100204.02;2089335;83;21743;-78
2021/06/23 02:30:58;;;;;;;23.38;12.55;;;;;;;17.89;79.47;100195.67;2112303;82;21474;-77
2021/06/23 02:33:59;;;;;;;15.20;12.03;;;;;;;17.91;79.56;100205.16;2099617;82;21067;-78
2021/06/23 02:37:06;;;;;;;15.72;11.03;;;;;;;17.88;79.36;100216.85;2116778;82;21002;-77
2021/06/23 02:40:10;;;;;;;17.40;11.53;;;;;;;17.86;79.38;100219.73;2115574;82;21112;-76
2021/06/23 02:43:13;;;;;;;18.30;12.25;;;;;;;17.83;79.39;100213.45;2118461;82;21023;-77
2021/06/23 02:46:18;;;;;;;16.45;10.60;;;;;;;17.80;79.37;100223.27;2112207;82;21585;-78
2021/06/23 02:49:22;;;;;;;17.12;11.18;;;;;;;17.77;79.38;100220.98;2115719;82;21026;-77
2021/06/23 02:52:25;;;;;;;23.42;11.97;;;;;;;17.75;79.43;100214.99;2088410;83;21527;-77
2021/06/23 02:55:27;;;;;;;18.90;11.25;;;;;;;17.72;79.54;100211.39;2117376;82;21003;-77
2021/06/23 02:58:32;;;;;;;18.50;11.60;;;;;;;17.69;79.45;100224.71;2112404;82;21558;-77
2021/06/23 03:01:34;;;;;;;19.48;10.60;;;;;;;17.70;79.48;100224.19;2111639;82;20991;-77
2021/06/23 03:04:41;;;;;;;17.45;11.22;;;;;;;17.70;79.43;100220.98;2115343;82;21012;-78
2021/06/23 03:07:46;;;;;;;22.37;11.00;;;;;;;17.71;79.41;100231.22;2115540;82;21101;-77
2021/06/23 03:10:52;;;;;;;17.30;11.18;;;;;;;17.73;79.46;100237.70;2110642;82;21012;-79
2021/06/23 03:14:11;;;;;;;22.50;11.20;;;;;;;17.81;79.49;100242.35;2117712;82;21085;-77
2021/06/23 03:17:15;;;;;;;25.72;11.45;;;;;;;17.86;79.34;100246.58;2120266;82;21073;-77
2021/06/23 03:20:17;;;;;;;19.07;12.35;;;;;;;17.93;79.47;100246.54;2114221;82;21016;-77
2021/06/23 03:23:19;;;;;;;25.25;11.63;;;;;;;17.94;79.28;100248.73;2117709;82;20991;-78
2021/06/23 03:26:21;;;;;;;21.35;11.93;;;;;;;17.94;79.15;100251.42;2117302;82;21505;-77
2021/06/23 03:29:32;;;;;;;18.62;11.53;;;;;;;17.98;79.14;100238.69;2092567;83;21061;-78
2021/06/23 03:32:34;;;;;;;;;;;;;;;18.02;79.10;100237.23;2072462;83;21073;-77
2021/06/23 03:35:37;;;;;;;20.50;11.78;;;;;;;18.00;78.95;100237.14;2092348;83;20733;-79
2021/06/23 03:38:39;;;;;;;19.27;11.12;;;;;;;17.99;78.97;100238.16;2092716;83;21054;-77
2021/06/23 03:41:42;;;;;;;15.58;11.40;;;;;;;18.02;79.02;100245.78;2098183;83;21615;-79
2021/06/23 03:44:43;;;;;;;26.23;12.07;;;;;;;18.06;78.98;100248.37;2095392;83;21074;-79
2021/06/23 03:47:46;;;;;;;22.60;11.88;;;;;;;18.10;78.86;100256.29;2092206;83;21497;-78
2021/06/23 03:50:49;;;;;;;17.52;10.48;;;;;;;18.07;78.75;100247.32;2091865;83;21072;-77
2021/06/23 03:53:53;;;;;;;21.45;11.08;;;;;;;18.01;78.68;100254.89;2091955;83;21030;-79
2021/06/23 03:56:55;;;;;;;18.90;11.18;;;;;;;17.98;78.73;100261.50;2094427;83;21044;-78
2021/06/23 03:59:56;;;;;;;19.50;11.33;;;;;;;17.91;78.79;100254.82;2096434;83;21742;-78
2021/06/23 04:02:59;;;;;;;16.90;11.30;;;;;;;17.88;78.78;100245.03;2095170;83;21018;-77
2021/06/23 04:06:05;;;;;;;20.10;11.08;;;;;;;17.84;78.82;100254.00;2089790;83;21070;-78
2021/06/23 04:09:06;;;;;;;18.23;11.60;;;;;;;17.83;78.89;100255.05;2091230;83;21028;-78
2021/06/23 04:12:11;;;;;;;29.57;11.75;;;;;;;17.84;78.89;100266.08;2093719;83;21041;-78
2021/06/23 04:15:23;;;;;;;18.73;10.68;;;;;;;17.85;78.83;100279.83;2092032;83;21030;-77
2021/06/23 04:18:25;;;;;;;17.05;11.12;;;;;;;17.82;78.87;100281.59;2088702;83;21147;-78
2021/06/23 04:21:27;;;;;;;15.18;10.58;;;;;;;17.81;78.91;100283.12;2087518;83;21019;-79
2021/06/23 04:24:32;;;;;;;19.40;10.68;;;;;;;17.83;78.97;100293.97;2096870;83;21090;-77
2021/06/23 04:27:35;;;;;;;15.70;10.65;;;;;;;17.84;78.93;100292.92;2090538;82;21139;-76
2021/06/23 04:30:37;;;;;;;19.55;10.60;;;;;;;17.86;78.89;100298.91;2102868;83;21053;-77
2021/06/23 04:33:39;;;;;;;17.60;10.40;;;;;;;17.89;78.84;100291.78;2103021;82;21087;-76
2021/06/23 04:36:42;;;;;;;16.65;10.53;;;;;;;17.84;78.71;100286.21;2096822;83;21057;-77
2021/06/23 04:39:44;;;;;;;17.27;10.98;;;;;;;17.85;78.80;100277.64;2097282;82;21007;-76
2021/06/23 04:42:47;;;;;;;19.10;11.25;;;;;;;17.86;78.83;100274.76;2115346;82;21097;-77
2021/06/23 04:45:48;;;;;;;18.48;10.25;;;;;;;17.85;78.93;100273.12;2106803;83;20978;-77
2021/06/23 04:48:51;;;;;;;17.02;10.28;;;;;;;17.86;78.82;100291.38;2102971;82;21049;-78
2021/06/23 04:51:54;;;;;;;15.78;10.82;;;;;;;17.87;78.76;100293.84;2102317;83;21552;-77
2021/06/23 04:54:57;;;;;;;17.90;11.80;;;;;;;17.91;78.81;100292.92;2101316;83;21078;-77
2021/06/23 04:57:59;;;;;;;16.10;11.30;;;;;;;17.92;78.73;100295.38;2105254;83;21469;-79
2021/06/23 05:01:00;;;;;;;19.95;11.63;;;;;;;17.96;78.77;100300.33;2100387;83;21159;-78
2021/06/23 05:04:04;;;;;;;20.05;11.22;;;;;;;17.96;78.59;100303.02;2098957;83;21068;-78
2021/06/23 05:07:07;;;;;;;31.42;11.78;;;;;;;18.01;78.72;100312.09;2104235;83;21059;-77
2021/06/23 05:10:12;;;;;;;40.23;11.83;;;;;;;18.04;78.50;100315.69;2100674;83;21057;-80
2021/06/23 05:13:13;;;;;;;19.90;11.25;;;;;;;18.12;78.47;100322.70;2104454;83;20976;-79
2021/06/23 05:16:16;;;;;;;18.35;10.75;;;;;;;18.17;78.37;100327.45;2073488;83;21075;-77
2021/06/23 05:19:19;;;;;;;17.75;10.48;;;;;;;18.21;78.36;100333.50;2103563;83;21119;-77
2021/06/23 05:22:20;;;;;;;21.73;11.45;;;;;;;18.25;78.14;100341.98;2103562;83;21013;-76
2021/06/23 05:25:22;;;;;;;20.35;11.57;;;;;;;18.27;78.15;100342.08;2106963;82;21096;-76
2021/06/23 05:28:25;;;;;;;19.37;10.95;;;;;;;18.30;78.07;100352.89;2097543;83;20982;-77
2021/06/23 05:31:27;;;;;;;21.87;11.12;;;;;;;18.25;77.89;100361.61;2094661;83;21485;-75
2021/06/23 05:34:29;;;;;;;27.67;12.00;;;;;;;18.25;77.91;100365.63;2099086;83;20997;-76
2021/06/23 05:37:31;;;;;;;17.48;11.48;;;;;;;18.22;77.91;100356.66;2095125;83;21002;-77
2021/06/23 05:40:32;;;;;;;22.65;11.53;;;;;;;18.14;77.69;100358.23;2087208;83;21623;-77
2021/06/23 05:43:34;;;;;;;18.62;11.08;;;;;;;18.07;77.81;100366.80;2092150;83;21084;-76
2021/06/23 05:46:35;;;;;;;24.60;10.85;;;;;;;18.03;77.87;100374.45;2093512;83;21029;-76
2021/06/23 05:49:37;;;;;;;17.25;10.20;;;;;;;17.98;77.88;100382.83;2099607;83;21595;-76
2021/06/23 05:52:38;;;;;;;19.52;10.30;;;;;;;17.96;77.92;100383.02;2093468;83;21020;-77
2021/06/23 05:55:40;;;;;;;24.75;11.05;;;;;;;17.97;77.90;100383.88;2088650;83;21005;-76
2021/06/23 05:58:42;;;;;;;33.48;10.65;;;;;;;17.98;77.95;100395.73;2092475;83;20995;-76
2021/06/23 06:01:44;;;;;;;19.48;10.53;;;;;;;17.96;77.91;100402.34;2088945;83;21006;-76
2021/06/23 06:04:45;;;;;;;16.70;9.78;;;;;;;17.95;77.87;100403.38;2090855;83;21498;-77
2021/06/23 06:07:48;;;;;;;19.48;9.93;;;;;;;17.92;77.89;100404.10;2098309;83;21006;-77
2021/06/23 06:10:50;;;;;;;33.98;10.28;;;;;;;17.93;78.00;100404.92;2096056;83;21790;-76
2021/06/23 06:13:52;;;;;;;17.15;10.23;;;;;;;17.94;77.97;100399.06;2090988;83;21001;-76
2021/06/23 06:16:53;;;;;;;16.65;9.90;;;;;;;17.92;77.91;100391.20;2090917;83;21004;-76
2021/06/23 06:19:58;;;;;;;16.40;10.23;;;;;;;17.91;78.03;100385.02;2097549;83;20989;-76
2021/06/23 06:23:00;;;;;;;20.32;9.63;;;;;;;17.86;77.98;100394.72;2086727;83;21620;-77
2021/06/23 06:26:01;;;;;;;14.50;10.40;;;;;;;17.84;78.21;100406.99;2091539;83;21009;-75
2021/06/23 06:29:03;;;;;;;18.30;11.75;;;;;;;17.82;78.20;100413.11;2081693;83;21511;-77
2021/06/23 06:32:06;;;;;;;19.50;11.03;;;;;;;17.88;78.44;100400.20;2079317;83;21090;-76
2021/06/23 06:35:09;;;;;;;16.62;10.60;;;;;;;18.01;78.46;100411.94;2079376;83;21653;-77
2021/06/23 06:38:10;;;;;;;21.27;10.75;;;;;;;18.07;78.36;100425.34;2080555;83;20990;-76
2021/06/23 06:41:12;;;;;;;44.90;12.93;;;;;;;18.13;78.30;100431.75;2083074;83;21001;-76
2021/06/23 06:44:13;;;;;;;21.80;12.28;;;;;;;18.15;78.19;100429.69;2083351;83;21026;-76
2021/06/23 06:47:15;;;;;;;21.75;11.55;;;;;;;18.20;78.26;100423.17;2087717;82;21006;-75
2021/06/23 06:50:16;;;;;;;23.22;11.55;;;;;;;18.27;78.17;100421.81;2080964;83;21013;-76
2021/06/23 06:53:18;;;;;;;21.82;11.28;;;;;;;18.40;78.26;100412.91;2085693;83;21050;-75
2021/06/23 06:56:19;;;;;;;19.90;11.05;;;;;;;18.53;78.00;100402.95;2083734;83;20983;-76
2021/06/23 06:59:21;;;;;;;18.85;11.00;;;;;;;18.55;77.89;100400.03;2077061;83;21002;-76
2021/06/23 07:02:23;;;;;;;20.65;10.90;;;;;;;18.59;77.69;100406.65;2082534;83;21041;-76
2021/06/23 07:05:28;;;;;;;27.17;13.65;;;;;;;18.69;77.66;100408.34;2083400;83;21554;-75
2021/06/23 07:08:29;;;;;;;24.43;12.93;;;;;;;18.78;77.55;100429.12;2080385;83;21033;-76
2021/06/23 07:11:31;;;;;;;15.95;11.12;;;;;;;18.82;77.17;100433.05;2083009;83;21057;-76
2021/06/23 07:14:32;;;;;;;18.52;11.73;;;;;;;18.78;76.91;100434.00;2084105;83;21022;-75
2021/06/23 07:17:34;;;;;;;25.52;12.20;;;;;;;18.73;76.62;100430.27;2084324;83;21438;-76
2021/06/23 07:20:36;;;;;;;23.70;12.58;;;;;;;18.67;76.62;100425.72;2083223;83;20998;-76
2021/06/23 07:23:38;;;;;;;28.10;12.30;;;;;;;18.70;76.68;100437.42;2084987;83;21595;-75
2021/06/23 07:26:39;;;;;;;19.60;11.43;;;;;;;18.74;76.65;100433.28;2080702;83;21080;-76
2021/06/23 07:29:41;;;;;;;16.60;11.35;;;;;;;18.77;76.54;100439.05;2100682;83;21109;-75
2021/06/23 07:32:58;;;;;;;19.82;11.57;;;;;;;18.75;76.39;100444.33;2107905;83;21016;-76
2021/06/23 07:39:19;;;;;;;18.80;11.63;;;;;;;18.70;76.21;100442.27;2109766;83;21093;-77
2021/06/23 07:42:21;;;;;;;15.95;10.90;;;;;;;18.69;76.30;100454.04;2100450;82;21049;-77
2021/06/23 07:45:23;;;;;;;20.88;11.30;;;;;;;18.75;76.34;100455.94;2100867;82;20986;-77
2021/06/23 07:48:30;;;;;;;18.35;11.05;;;;;;;18.79;76.01;100453.12;2106839;83;20996;-76
2021/06/23 07:51:42;;;;;;;20.37;11.12;;;;;;;18.83;76.15;100450.82;2103019;83;21033;-78
2021/06/23 07:55:02;;;;;;;16.55;10.45;;;;;;;18.95;76.27;100450.48;2098011;82;21084;-78
2021/06/23 08:08:22;;;;;;;18.95;11.85;;;;;;;19.89;75.00;100430.55;2100790;83;21045;-78
2021/06/23 08:11:25;;;;;;;16.42;11.63;;;;;;;20.02;73.81;100429.09;2096868;83;21009;-79
2021/06/23 08:14:24;;;;;;;21.82;12.23;;;;;;;19.94;73.52;100438.80;2082586;83;21076;-78
2021/06/23 08:17:26;;;;;;;23.38;11.57;;;;;;;20.01;73.81;100452.19;2099731;83;21060;-78
2021/06/23 08:20:31;;;;;;;21.65;12.20;;;;;;;19.93;73.59;100453.28;2109607;83;21048;-79
2021/06/23 08:23:32;;;;;;;23.67;11.70;;;;;;;19.90;73.44;100457.77;2101374;81;21573;-79
2021/06/23 08:26:34;;;;;;;22.82;10.90;;;;;;;19.83;73.48;100451.63;2100540;83;21041;-77
2021/06/23 08:29:36;;;;;;;18.65;12.40;;;;;;;19.73;73.25;100453.97;2097925;83;20986;-78
2021/06/23 08:32:38;;;;;;;17.73;11.93;;;;;;;19.72;73.33;100464.45;2088529;83;21112;-77
2021/06/23 08:35:40;;;;;;;17.35;11.20;;;;;;;19.73;73.73;100461.52;2085704;83;21470;-78
2021/06/23 08:38:41;;;;;;;19.30;11.93;;;;;;;19.70;72.74;100465.47;2089738;83;21010;-80
2021/06/23 08:41:44;;;;;;;20.12;12.58;;;;;;;19.52;73.08;100479.36;2092676;83;21042;-77
2021/06/23 08:44:48;;;;;;;22.15;11.00;;;;;;;19.43;73.50;100490.38;2098722;83;21087;-77
2021/06/23 08:47:50;;;;;;;21.25;12.35;;;;;;;19.38;73.27;100494.75;2092157;83;21077;-77
2021/06/23 08:50:52;;;;;;;16.32;10.95;;;;;;;19.35;73.55;100493.31;2092246;83;21526;-78
2021/06/23 08:53:53;;;;;;;18.02;11.08;;;;;;;19.31;73.33;100487.22;2080046;83;21576;-77
2021/06/23 08:56:55;;;;;;;16.48;11.60;;;;;;;19.30;73.52;100485.58;2091179;83;20981;-78
2021/06/23 08:59:56;;;;;;;20.05;12.30;;;;;;;19.37;73.69;100487.70;2087346;83;21000;-79
2021/06/23 09:03:06;;;;;;;18.12;12.07;;;;;;;19.48;73.78;100481.63;2097413;83;20961;-77
2021/06/23 09:06:08;;;;;;;17.32;11.60;;;;;;;19.57;73.38;100498.34;2094458;83;21046;-79
2021/06/23 09:09:24;;;;;;;21.82;11.50;;;;;;;19.56;73.28;100498.05;2096194;83;21030;-79
2021/06/23 09:12:25;;;;;;;21.30;11.63;;;;;;;19.59;73.32;100486.33;2089821;83;21050;-78
2021/06/23 09:15:58;;;;;;;23.10;11.88;;;;;;;19.69;73.38;100488.06;2088151;83;20978;-78
2021/06/23 09:19:07;;;;;;;23.07;13.40;;;;;;;19.74;73.07;100491.95;2087267;83;22272;-79
2021/06/23 09:22:40;;;;;;;20.00;12.17;;;;;;;19.76;72.99;100489.34;2091104;83;21080;-78
2021/06/23 09:25:45;;;;;;;24.43;11.28;;;;;;;19.78;72.88;100491.84;2093502;83;21716;-77
2021/06/23 09:28:48;;;;;;;22.10;11.70;;;;;;;19.83;73.08;100496.05;2092672;83;21083;-77
2021/06/23 09:32:05;;;;;;;20.95;12.58;;;;;;;19.91;72.84;100496.61;2087099;83;21005;-77
2021/06/23 09:35:08;;;;;;;18.95;11.22;;;;;;;20.01;72.28;100490.71;2094582;81;20990;-78
2021/06/23 09:38:38;;;;;;;19.02;11.03;;;;;;;19.93;72.35;100496.37;2090767;83;21659;-77
2021/06/23 09:41:40;;;;;;;19.30;10.75;;;;;;;19.97;72.31;100502.16;2088460;83;21005;-78
2021/06/23 09:44:52;;;;;;;16.87;10.32;;;;;;;20.07;72.21;100499.25;2093155;83;21455;-78
2021/06/23 09:48:04;;;;;;;21.82;10.82;;;;;;;20.04;71.85;100494.84;2086293;83;21056;-78
2021/06/23 09:51:17;;;;;;;19.27;9.95;;;;;;;20.17;72.23;100496.08;2090819;83;21022;-79
2021/06/23 09:54:26;;;;;;;13.43;9.13;;;;;;;20.33;72.20;100497.41;2091018;83;21047;-78
2021/06/23 09:57:28;;;;;;;16.12;8.68;;;;;;;20.37;71.33;100495.37;2088698;83;21066;-79
2021/06/23 10:00:29;;;;;;;17.75;9.85;;;;;;;20.36;71.63;100499.65;2092784;83;21049;-78
2021/06/23 10:03:54;;;;;;;16.77;9.90;;;;;;;20.49;71.44;100502.19;2089709;83;21050;-77
2021/06/23 10:06:56;;;;;;;15.05;10.53;;;;;;;20.34;71.01;100499.04;2087565;83;21144;-78
2021/06/23 10:09:57;;;;;;;19.73;10.40;;;;;;;20.33;71.14;100510.88;2100035;83;21022;-77
2021/06/23 10:12:59;;;;;;;16.10;9.68;;;;;;;20.44;71.17;100515.53;2093515;83;21029;-79
2021/06/23 10:16:02;;;;;;;19.07;10.82;;;;;;;20.59;71.31;100515.20;2090634;83;21497;-78
2021/06/23 10:19:06;;;;;;;17.50;10.93;;;;;;;20.59;70.34;100512.52;2091548;83;20978;-77
2021/06/23 10:22:08;;;;;;;17.55;10.70;;;;;;;20.53;70.54;100512.88;2087233;83;21039;-77
2021/06/23 10:25:14;;;;;;;16.07;10.25;;;;;;;20.53;70.63;100512.88;2091749;83;21596;-76
2021/06/23 10:28:20;;;;;;;15.65;10.90;;;;;;;20.57;70.57;100505.98;2089272;81;21100;-77
2021/06/23 10:31:25;;;;;;;16.97;10.72;;;;;;;20.56;70.28;100512.96;2065072;84;21046;-77
2021/06/23 10:34:26;;;;;;;16.17;11.28;;;;;;;20.52;70.33;100515.22;2073915;83;20994;-78
2021/06/23 10:37:32;;;;;;;15.10;11.08;;;;;;;20.53;70.36;100503.45;2083434;83;20986;-78
2021/06/23 10:40:35;;;;;;;20.80;11.33;;;;;;;20.58;70.17;100506.30;2066044;83;21078;-78
2021/06/23 10:43:36;;;;;;;18.50;11.03;;;;;;;20.56;70.08;100508.92;2080771;83;21006;-78
2021/06/23 10:46:39;;;;;;;19.12;12.03;;;;;;;20.50;70.06;100516.52;2076266;83;21015;-76
2021/06/23 10:49:50;;;;;;;18.07;10.65;;;;;;;20.43;69.74;100512.52;2080126;83;21006;-78
2021/06/23 10:52:52;;;;;;;18.42;11.00;;;;;;;20.38;70.24;100512.36;2086201;84;21107;-80
2021/06/23 10:55:53;;;;;;;14.87;10.53;;;;;;;20.46;70.27;100509.38;2085988;83;21082;-78
2021/06/23 10:58:55;;;;;;;15.60;11.05;;;;;;;20.55;70.38;100509.95;2083563;83;21026;-80
2021/06/23 11:02:14;;;;;;;16.85;10.78;;;;;;;20.68;69.90;100501.73;2087058;83;21119;-79
2021/06/23 11:05:18;;;;;;;13.68;9.43;;;;;;;20.69;69.90;100499.85;2080669;83;21044;-78
2021/06/23 11:08:37;;;;;;;21.60;10.88;;;;;;;20.77;70.12;100503.07;2082817;83;21575;-80
2021/06/23 11:11:40;;;;;;;13.62;9.95;;;;;;;20.86;69.83;100508.98;2088393;83;21009;-81
2021/06/23 11:14:41;;;;;;;16.25;10.58;;;;;;;20.82;69.65;100509.97;2079339;83;21128;-80
2021/06/23 11:17:48;;;;;;;14.23;10.48;;;;;;;20.75;69.64;100501.14;2085438;83;20974;-80
2021/06/23 11:21:00;;;;;;;15.35;10.00;;;;;;;20.74;69.71;100503.52;2079403;83;21576;-79
2021/06/23 11:24:06;;;;;;;15.68;10.30;;;;;;;20.70;69.52;100502.87;2091622;83;20986;-79
2021/06/23 11:27:13;;;;;;;18.15;10.53;;;;;;;20.72;69.65;100500.25;2067040;83;20996;-77
2021/06/23 11:30:22;;;;;;;17.95;11.95;;;;;;;20.76;69.45;100501.44;2078939;83;21022;-79
2021/06/23 11:33:32;;;;;;;15.63;11.63;;;;;;;20.84;69.81;100511.11;2082073;83;20993;-79
2021/06/23 11:36:34;;;;;;;19.95;12.15;;;;;;;20.92;69.44;100509.45;2089921;83;21050;-79
2021/06/23 11:39:36;;;;;;;15.48;11.68;;;;;;;20.80;69.25;100507.19;2085220;83;21032;-79
2021/06/23 11:42:39;;;;;;;28.30;11.60;;;;;;;20.80;69.11;100510.70;2085176;83;21287;-79
2021/06/23 11:45:41;;;;;;;19.65;12.10;;;;;;;20.75;69.34;100512.43;2085221;83;21634;-79
2021/06/23 11:48:43;;;;;;;19.57;12.55;;;;;;;20.78;69.54;100514.17;2086748;83;21002;-78
2021/06/23 11:51:44;;;;;;;16.65;11.78;;;;;;;20.84;69.41;100513.80;2087031;83;21497;-79
2021/06/23 11:54:46;;;;;;;18.10;11.73;;;;;;;20.82;69.26;100516.71;2082888;83;21271;-79
2021/06/23 11:57:47;;;;;;;21.97;12.85;;;;;;;20.86;69.18;100519.77;2093033;83;21082;-78
2021/06/23 12:00:49;;;;;;;23.77;13.68;;;;;;;20.84;68.92;100513.80;2083737;83;21070;-80
2021/06/23 12:03:52;;;;;;;17.57;13.00;;;;;;;20.89;69.30;100509.06;2079615;83;21057;-81
2021/06/23 12:06:54;;;;;;;21.55;13.00;;;;;;;21.03;68.88;100510.05;2080979;83;21451;-79
2021/06/23 12:09:55;;;;;;;20.48;12.65;;;;;;;21.18;69.19;100503.44;2080808;83;21506;-79
2021/06/23 12:12:59;;;;;;;18.02;11.88;;;;;;;21.29;68.80;100504.02;2083103;83;20943;-79
2021/06/23 12:16:01;;;;;;;21.02;12.78;;;;;;;21.51;68.97;100503.53;2081942;84;21031;-77
2021/06/23 12:19:02;;;;;;;24.52;13.90;;;;;;;21.75;68.52;100497.16;2072631;83;21443;-77
2021/06/23 12:22:08;;;;;;;17.50;11.90;;;;;;;21.85;68.16;100500.12;2084458;83;21023;-77
2021/06/23 12:25:17;;;;;;;25.85;14.47;;;;;;;21.94;67.95;100500.08;2081634;83;21050;-76
2021/06/23 12:28:17;;;;;;;22.70;14.30;;;;;;;21.94;67.57;100501.42;2082210;83;21116;-77
2021/06/23 12:31:18;;;;;;;24.30;12.85;;;;;;;22.08;67.79;100497.98;2091366;83;21088;-77
2021/06/23 12:34:20;;;;;;;21.85;13.32;;;;;;;22.13;67.47;100494.56;2081001;83;21027;-77
2021/06/23 12:37:21;;;;;;;24.50;13.32;;;;;;;22.18;67.10;100498.77;2082370;83;21130;-77
2021/06/23 12:40:23;;;;;;;20.55;13.70;;;;;;;22.25;66.78;100500.03;2075275;83;20960;-77
2021/06/23 12:43:25;;;;;;;24.65;13.70;;;;;;;22.22;66.66;100499.15;2087370;83;21022;-75
2021/06/23 12:46:27;;;;;;;19.32;12.82;;;;;;;22.21;66.16;100497.48;2087477;83;21065;-76
2021/06/23 12:49:28;;;;;;;23.32;12.65;;;;;;;22.31;66.81;100486.92;2073997;83;21039;-76
2021/06/23 12:52:30;;;;;;;22.42;13.38;;;;;;;22.70;66.68;100487.25;2076681;83;21475;-76
2021/06/23 12:55:31;;;;;;;20.80;13.60;;;;;;;22.81;65.75;100487.22;2089048;83;21018;-77
2021/06/23 12:58:33;;;;;;;18.90;12.07;;;;;;;22.93;65.60;100485.02;2083993;83;21075;-76
2021/06/23 13:01:36;;;;;;;19.12;12.13;;;;;;;22.88;64.64;100489.78;2077397;83;21492;-76
2021/06/23 13:04:38;;;;;;;18.60;12.50;;;;;;;22.99;65.20;100485.44;2077644;83;21117;-77
2021/06/23 13:07:39;;;;;;;19.87;13.20;;;;;;;23.08;64.51;100479.92;2081820;83;21037;-76
2021/06/23 13:10:41;;;;;;;19.00;12.23;;;;;;;23.07;64.65;100482.35;2082174;83;21470;-77
2021/06/23 13:13:43;;;;;;;22.85;12.50;;;;;;;23.03;64.40;100479.31;2086387;83;21481;-77
2021/06/23 13:16:45;;;;;;;20.12;11.93;;;;;;;23.10;64.64;100485.11;2086333;83;21038;-76
2021/06/23 13:19:47;;;;;;;21.82;12.80;;;;;;;23.13;64.48;100483.28;2078133;83;21053;-76
2021/06/23 13:22:50;;;;;;;19.15;11.45;;;;;;;23.12;64.21;100486.52;2080934;83;21533;-76
2021/06/23 13:25:53;;;;;;;21.40;13.45;;;;;;;23.12;64.42;100479.75;2087575;83;21001;-78
2021/06/23 13:28:54;;;;;;;18.90;12.30;;;;;;;23.19;64.17;100480.95;2086750;83;21042;-76
2021/06/23 13:31:56;;;;;;;21.65;11.30;;;;;;;23.28;64.10;100470.02;2096159;83;21066;-76
2021/06/23 13:34:58;;;;;;;20.12;12.50;;;;;;;23.43;64.04;100462.73;2073349;83;21013;-77
2021/06/23 13:38:00;;;;;;;16.45;10.82;;;;;;;23.54;63.80;100471.33;2098018;83;21019;-78
2021/06/23 13:41:02;;;;;;;23.12;11.55;;;;;;;23.67;63.80;100479.12;2091612;83;21075;-76
2021/06/23 13:44:04;;;;;;;15.40;10.23;;;;;;;23.74;63.28;100472.25;2093057;83;21326;-77
2021/06/23 13:47:09;;;;;;;17.27;10.32;;;;;;;23.80;63.24;100478.57;2090323;83;21062;-76
2021/06/23 13:50:15;;;;;;;18.07;11.43;;;;;;;23.85;63.03;100475.41;2097798;83;22259;-77
2021/06/23 13:53:16;;;;;;;16.85;10.35;;;;;;;23.83;62.49;100476.18;2093382;83;21065;-77
2021/06/23 13:56:19;;;;;;;19.55;11.22;;;;;;;23.80;62.63;100473.97;2089759;83;21129;-77
2021/06/23 13:59:21;;;;;;;19.35;10.70;;;;;;;23.71;62.63;100476.27;2089533;83;21501;-76
2021/06/23 14:02:22;;;;;;;17.57;11.50;;;;;;;23.67;62.53;100466.94;2092947;83;20983;-76
2021/06/23 14:05:24;;;;;;;18.87;10.40;;;;;;;23.67;62.82;100465.58;2092705;83;21494;-78
2021/06/23 14:08:26;;;;;;;16.90;10.05;;;;;;;23.60;62.52;100470.34;2096215;83;21057;-76
2021/06/23 14:11:28;;;;;;;19.10;10.35;;;;;;;23.59;62.54;100470.05;2095674;81;21075;-77